Detall de PIREP

Printer-friendly versionPDF version

[2010/10/15 17:37:00]
Flight IATA:CT0001
Pilot Number:042
Company ICAO:CAT
Aircraft Type:AT72/F
PAX:3
Departing Airport: LEBL
Destination Airport: LEVC
Alternate Airport:LEPA
Online: VATSIM
Route:LARPA B31 TOLSO
Flight Level:FL260
No Slew and time accel
No pause
Crash detect
Detect pilot in Cockpit between each 30 and 45 minutes
17:37 Zero fuel Weight: 37063 Lbs, Fuel Weight: 11201 Lbs
17:37 VATSIM:LEBL 151700Z 30011KT 290V350 CAVOK 17/10 Q1010 NOSIG
17:37 VATSIM:LEVC 151700Z 08006KT 9999 BKN028 19/13 Q1010 NOSIG
17:37 VOICE CATALONIAN
17:42 Parking Brakes off
17:49 Take-off
17:49 Take off Weight: 48173 Lbs
17:49 Wind: 325 @ 011 Knots Heading: 250
17:49 POS N41 17 09 E002 05 05
17:49 Gear Up: 137 Knots
17:49 Flaps:1 at 137 Knots
17:50 Flaps:0 at 175 Knots
18:04 Wind:344@007 Knots Heading: 165 Ground Speed: 292 Knots Altitude 16026 ft
18:19 Wind:300@016 Knots Heading: 233 Ground Speed: 245 Knots Altitude 8372 ft
18:31 Flaps:1 at 166 Knots
18:34 Wind:009@003 Knots Heading: 240 Ground Speed: 164 Knots Altitude 2749 ft
18:36 Gear Down: 120 Knots
18:36 Flaps:2 at 120 Knots
18:42 TouchDown:Rate -477 ft/min Speed: 89 Knots
18:42 VATSIM:LEVC 151830Z VRB02KT 9999 BKN035 19/14 Q1011 NOSIG
18:42 Land
18:42 Wind:012@003 Knots
18:42 Heading: 054
18:42 Flight Duration: 00:53
18:42 Landing Weight: 46952 Lbs
18:42 POS N38 52 19 E001 22 15
18:43 Parking brakes on
18:43 Block to Block Duration: 01:01
18:43 Final Fuel: 9880 Lbls
18:43 Spent Fuel: 1320 Lbls
18:43 Flight Length: 175 NM
18:43 TOD Land Length: 175 NM

Exportar CSV

Powered by Drupal - Modified by Danger4k